NOK144 VTSP-VTBS
Flight info
| Callsign | NOK144 |
|---|---|
| Flight time | 1h 8m |
| Altitude | 31000 |
| Route | EMRIT1A EMRIT Y99 NONEL Y98 LEBIM LEBIM1C |
| Aircraft | B38M/M-SDE1FGHILORVWXY/HB1 |
Departure
| Time | 2026-05-05 19:43 |
|---|---|
| Airport | Phuket International Airport (VTSP) |
Arrival
| Time | 2026-05-05 20:51 |
|---|---|
| Airport | Suvarnabhumi Airport (VTBS) |
| Time | Latitude | Longitude | Altitude | Speed | Heading |
|---|---|---|---|---|---|
| 2026-05-05 19:16 | 8.10515 | 98.30443 | 29 ft | 0 kts | 105° |
| 2026-05-05 19:32 | 8.10520 | 98.30426 | 29 ft | 4 kts | 106° |
| 2026-05-05 19:32 | 8.10528 | 98.30399 | 29 ft | 4 kts | 105° |
| 2026-05-05 19:33 | 8.10532 | 98.30373 | 29 ft | 4 kts | 88° |
| 2026-05-05 19:33 | 8.10526 | 98.30355 | 29 ft | 3 kts | 17° |
| 2026-05-05 19:33 | 8.10504 | 98.30349 | 29 ft | 1 kts | 14° |
| 2026-05-05 19:36 | 8.10506 | 98.30350 | 29 ft | 1 kts | 14° |
| 2026-05-05 19:37 | 8.10524 | 98.30354 | 29 ft | 4 kts | 13° |
| 2026-05-05 19:37 | 8.10563 | 98.30364 | 29 ft | 8 kts | 14° |
| 2026-05-05 19:37 | 8.10603 | 98.30374 | 29 ft | 10 kts | 14° |
| 2026-05-05 19:37 | 8.10716 | 98.30405 | 29 ft | 15 kts | 15° |
| 2026-05-05 19:38 | 8.10820 | 98.30434 | 29 ft | 16 kts | 15° |
| 2026-05-05 19:38 | 8.10932 | 98.30463 | 29 ft | 15 kts | 15° |
| 2026-05-05 19:38 | 8.11018 | 98.30481 | 30 ft | 11 kts | 353° |
| 2026-05-05 19:38 | 8.11041 | 98.30426 | 29 ft | 10 kts | 261° |
| 2026-05-05 19:39 | 8.11038 | 98.30371 | 29 ft | 8 kts | 286° |
| 2026-05-05 19:39 | 8.11086 | 98.30350 | 29 ft | 4 kts | 355° |
| 2026-05-05 19:39 | 8.11087 | 98.30350 | 29 ft | 0 kts | 355° |
| 2026-05-05 19:41 | 8.11091 | 98.30350 | 29 ft | 2 kts | 355° |
| 2026-05-05 19:41 | 8.11127 | 98.30347 | 29 ft | 9 kts | 354° |
| 2026-05-05 19:41 | 8.11189 | 98.30345 | 29 ft | 6 kts | 31° |
| 2026-05-05 19:41 | 8.11200 | 98.30385 | 29 ft | 7 kts | 87° |
| 2026-05-05 19:42 | 8.11202 | 98.30409 | 29 ft | 0 kts | 84° |
| 2026-05-05 19:42 | 8.11204 | 98.30420 | 29 ft | 7 kts | 83° |
| 2026-05-05 19:42 | 8.11225 | 98.30618 | 30 ft | 65 kts | 85° |
| 2026-05-05 19:42 | 8.11290 | 98.31339 | 35 ft | 139 kts | 85° |
| 2026-05-05 19:43 | 8.11407 | 98.32464 | 381 ft | 168 kts | 84° |
| 2026-05-05 19:43 | 8.11514 | 98.33642 | 1220 ft | 173 kts | 84° |
| 2026-05-05 19:43 | 8.11617 | 98.34896 | 1926 ft | 184 kts | 83° |
| 2026-05-05 19:43 | 8.11749 | 98.36261 | 2418 ft | 203 kts | 84° |
| 2026-05-05 19:44 | 8.11892 | 98.37756 | 2817 ft | 225 kts | 84° |
| 2026-05-05 19:44 | 8.12046 | 98.39377 | 3380 ft | 237 kts | 85° |
| 2026-05-05 19:44 | 8.12205 | 98.41065 | 4266 ft | 241 kts | 85° |
| 2026-05-05 19:44 | 8.12368 | 98.42803 | 4924 ft | 256 kts | 85° |
| 2026-05-05 19:45 | 8.12541 | 98.44654 | 5604 ft | 266 kts | 85° |
| 2026-05-05 19:45 | 8.12716 | 98.46521 | 6462 ft | 268 kts | 85° |
| 2026-05-05 19:45 | 8.12893 | 98.48410 | 7244 ft | 272 kts | 85° |
| 2026-05-05 19:45 | 8.13070 | 98.50298 | 8052 ft | 275 kts | 85° |
| 2026-05-05 19:46 | 8.13254 | 98.52258 | 8869 ft | 278 kts | 85° |
| 2026-05-05 19:46 | 8.13436 | 98.54208 | 9680 ft | 281 kts | 85° |
| 2026-05-05 19:46 | 8.13625 | 98.56225 | 10348 ft | 289 kts | 85° |
| 2026-05-05 19:46 | 8.13820 | 98.58317 | 10678 ft | 308 kts | 85° |
| 2026-05-05 19:47 | 8.14018 | 98.60533 | 10963 ft | 326 kts | 88° |
| 2026-05-05 19:47 | 8.13775 | 98.62846 | 11428 ft | 335 kts | 100° |
| 2026-05-05 19:47 | 8.13370 | 98.65191 | 12020 ft | 341 kts | 100° |
| 2026-05-05 19:47 | 8.12960 | 98.67564 | 12716 ft | 344 kts | 100° |
| 2026-05-05 19:48 | 8.12543 | 98.69961 | 13353 ft | 349 kts | 100° |
| 2026-05-05 19:48 | 8.12124 | 98.72355 | 13955 ft | 353 kts | 100° |
| 2026-05-05 19:48 | 8.11694 | 98.74809 | 14535 ft | 356 kts | 100° |
| 2026-05-05 19:48 | 8.11259 | 98.77285 | 15122 ft | 360 kts | 100° |
| 2026-05-05 19:49 | 8.10809 | 98.79848 | 15702 ft | 363 kts | 100° |
| 2026-05-05 19:49 | 8.10597 | 98.81526 | 16053 ft | 366 kts | 92° |
| 2026-05-05 19:49 | 8.10626 | 98.84954 | 16776 ft | 370 kts | 90° |
| 2026-05-05 19:49 | 8.10651 | 98.87599 | 17310 ft | 374 kts | 89° |
| 2026-05-05 19:50 | 8.10677 | 98.90236 | 17825 ft | 377 kts | 89° |
| 2026-05-05 19:50 | 8.10882 | 98.92881 | 18287 ft | 381 kts | 77° |
| 2026-05-05 19:50 | 8.11818 | 98.95342 | 18738 ft | 383 kts | 60° |
| 2026-05-05 19:50 | 8.13496 | 98.97485 | 19153 ft | 387 kts | 43° |
| 2026-05-05 19:51 | 8.15714 | 98.99044 | 19577 ft | 391 kts | 26° |
| 2026-05-05 19:51 | 8.18626 | 99.00191 | 20049 ft | 394 kts | 21° |
| 2026-05-05 19:51 | 8.23858 | 99.02009 | 20899 ft | 399 kts | 19° |
| 2026-05-05 19:51 | 8.29159 | 99.03772 | 21699 ft | 404 kts | 19° |
| 2026-05-05 19:52 | 8.34535 | 99.05565 | 22478 ft | 409 kts | 19° |
| 2026-05-05 19:52 | 8.40003 | 99.07325 | 23234 ft | 414 kts | 19° |
| 2026-05-05 19:52 | 8.45516 | 99.09141 | 23872 ft | 418 kts | 18° |
| 2026-05-05 19:52 | 8.51087 | 99.10973 | 24490 ft | 422 kts | 19° |
| 2026-05-05 19:53 | 8.56703 | 99.12811 | 25087 ft | 426 kts | 19° |
| 2026-05-05 19:53 | 8.62364 | 99.14644 | 25679 ft | 430 kts | 18° |
| 2026-05-05 19:53 | 8.67766 | 99.16482 | 26227 ft | 433 kts | 19° |
| 2026-05-05 19:53 | 8.70649 | 99.17407 | 26503 ft | 435 kts | 19° |
| 2026-05-05 19:54 | 8.73551 | 99.18349 | 26787 ft | 437 kts | 19° |
| 2026-05-05 19:54 | 8.76456 | 99.19300 | 27073 ft | 439 kts | 19° |
| 2026-05-05 19:54 | 8.79372 | 99.20257 | 27354 ft | 441 kts | 19° |
| 2026-05-05 19:54 | 8.82269 | 99.21209 | 27623 ft | 443 kts | 19° |
| 2026-05-05 19:55 | 8.85204 | 99.22173 | 27894 ft | 445 kts | 19° |
| 2026-05-05 19:55 | 8.88159 | 99.23145 | 28161 ft | 447 kts | 19° |
| 2026-05-05 19:55 | 8.91120 | 99.24118 | 28424 ft | 449 kts | 19° |
| 2026-05-05 19:55 | 8.94102 | 99.25099 | 28680 ft | 451 kts | 19° |
| 2026-05-05 19:56 | 8.97093 | 99.26083 | 28939 ft | 452 kts | 19° |
| 2026-05-05 19:56 | 9.00087 | 99.27067 | 29195 ft | 454 kts | 19° |
| 2026-05-05 19:56 | 9.03105 | 99.28060 | 29443 ft | 456 kts | 19° |
| 2026-05-05 19:56 | 9.06114 | 99.29050 | 29700 ft | 458 kts | 19° |
| 2026-05-05 19:57 | 9.09167 | 99.30056 | 29914 ft | 460 kts | 19° |
| 2026-05-05 19:57 | 9.11193 | 99.30722 | 30055 ft | 461 kts | 19° |
| 2026-05-05 19:57 | 9.15283 | 99.32069 | 30325 ft | 463 kts | 19° |
| 2026-05-05 19:57 | 9.18356 | 99.33081 | 30530 ft | 465 kts | 19° |
| 2026-05-05 19:58 | 9.21439 | 99.34096 | 30732 ft | 466 kts | 19° |
| 2026-05-05 19:58 | 9.24530 | 99.35115 | 30842 ft | 469 kts | 19° |
| 2026-05-05 19:58 | 9.27654 | 99.36144 | 30846 ft | 473 kts | 19° |
| 2026-05-05 19:59 | 9.32855 | 99.37858 | 30841 ft | 473 kts | 19° |
| 2026-05-05 19:59 | 9.39115 | 99.39922 | 30843 ft | 473 kts | 19° |
| 2026-05-05 20:00 | 9.45372 | 99.41986 | 30838 ft | 473 kts | 19° |
| 2026-05-05 20:00 | 9.51636 | 99.44052 | 30839 ft | 473 kts | 19° |
| 2026-05-05 20:01 | 9.57936 | 99.46132 | 30839 ft | 473 kts | 19° |
| 2026-05-05 20:01 | 9.68188 | 99.49514 | 30839 ft | 473 kts | 19° |
| 2026-05-05 20:02 | 9.80508 | 99.53569 | 30837 ft | 473 kts | 19° |
| 2026-05-05 20:02 | 9.86758 | 99.55653 | 30842 ft | 473 kts | 19° |
| 2026-05-05 20:03 | 9.93024 | 99.57728 | 30845 ft | 473 kts | 19° |
| 2026-05-05 20:03 | 9.99294 | 99.59803 | 30842 ft | 473 kts | 19° |
| 2026-05-05 20:04 | 10.00733 | 99.60280 | 30836 ft | 473 kts | 19° |
| 2026-05-05 20:04 | 10.03830 | 99.61305 | 30840 ft | 474 kts | 19° |
| 2026-05-05 20:05 | 10.10062 | 99.63369 | 30840 ft | 474 kts | 19° |
| 2026-05-05 20:05 | 10.16336 | 99.65447 | 30841 ft | 474 kts | 19° |
| 2026-05-05 20:06 | 10.22617 | 99.67529 | 30838 ft | 475 kts | 19° |
| 2026-05-05 20:06 | 10.28902 | 99.69613 | 30841 ft | 475 kts | 19° |
| 2026-05-05 20:07 | 10.35251 | 99.71719 | 30841 ft | 475 kts | 19° |
| 2026-05-05 20:07 | 10.41553 | 99.73811 | 30842 ft | 475 kts | 19° |
| 2026-05-05 20:08 | 10.47849 | 99.75901 | 30840 ft | 476 kts | 19° |
| 2026-05-05 20:08 | 10.54153 | 99.77995 | 30840 ft | 476 kts | 19° |
| 2026-05-05 20:09 | 10.60453 | 99.80088 | 30840 ft | 476 kts | 19° |
| 2026-05-05 20:09 | 10.66760 | 99.82185 | 30841 ft | 477 kts | 19° |
| 2026-05-05 20:10 | 10.73071 | 99.84284 | 30839 ft | 477 kts | 19° |
| 2026-05-05 20:10 | 10.79394 | 99.86387 | 30841 ft | 477 kts | 19° |
| 2026-05-05 20:11 | 10.85713 | 99.88490 | 30841 ft | 477 kts | 18° |
| 2026-05-05 20:11 | 10.91727 | 99.91287 | 30840 ft | 476 kts | 29° |
| 2026-05-05 20:12 | 10.97513 | 99.94519 | 30840 ft | 477 kts | 29° |
| 2026-05-05 20:12 | 11.03371 | 99.97812 | 30841 ft | 478 kts | 29° |
| 2026-05-05 20:13 | 11.09157 | 100.01067 | 30842 ft | 478 kts | 29° |
| 2026-05-05 20:13 | 11.15025 | 100.04370 | 30843 ft | 478 kts | 29° |
| 2026-05-05 20:14 | 11.20852 | 100.07652 | 30842 ft | 478 kts | 29° |
| 2026-05-05 20:14 | 11.26681 | 100.10936 | 30840 ft | 478 kts | 29° |
| 2026-05-05 20:15 | 11.32510 | 100.14221 | 30839 ft | 478 kts | 29° |
| 2026-05-05 20:15 | 11.38331 | 100.17504 | 30841 ft | 478 kts | 29° |
| 2026-05-05 20:16 | 11.44155 | 100.20790 | 30842 ft | 478 kts | 29° |
| 2026-05-05 20:16 | 11.49953 | 100.24063 | 30840 ft | 478 kts | 29° |
| 2026-05-05 20:17 | 11.55784 | 100.27356 | 30839 ft | 478 kts | 29° |
| 2026-05-05 20:17 | 11.61615 | 100.30652 | 30839 ft | 478 kts | 29° |
| 2026-05-05 20:18 | 11.67440 | 100.33946 | 30840 ft | 478 kts | 29° |
| 2026-05-05 20:18 | 11.73261 | 100.37240 | 30836 ft | 478 kts | 29° |
| 2026-05-05 20:19 | 11.79087 | 100.40538 | 30837 ft | 478 kts | 29° |
| 2026-05-05 20:19 | 11.85017 | 100.43575 | 30822 ft | 476 kts | 15° |
| 2026-05-05 20:19 | 11.88274 | 100.44141 | 30839 ft | 475 kts | 2° |
| 2026-05-05 20:20 | 11.91590 | 100.44303 | 30833 ft | 477 kts | 2° |
| 2026-05-05 20:20 | 11.98217 | 100.44545 | 30837 ft | 477 kts | 1° |
| 2026-05-05 20:21 | 12.04849 | 100.44723 | 30838 ft | 476 kts | 1° |
| 2026-05-05 20:21 | 12.11436 | 100.44889 | 30839 ft | 476 kts | 1° |
| 2026-05-05 20:22 | 12.18068 | 100.45056 | 30838 ft | 475 kts | 1° |
| 2026-05-05 20:22 | 12.24690 | 100.45223 | 30838 ft | 475 kts | 1° |
| 2026-05-05 20:23 | 12.31227 | 100.45388 | 30636 ft | 460 kts | 1° |
| 2026-05-05 20:23 | 12.34415 | 100.45468 | 30142 ft | 456 kts | 1° |
| 2026-05-05 20:23 | 12.37591 | 100.45549 | 29463 ft | 456 kts | 1° |
| 2026-05-05 20:23 | 12.40765 | 100.45629 | 28811 ft | 455 kts | 1° |
| 2026-05-05 20:24 | 12.43916 | 100.45708 | 28289 ft | 451 kts | 1° |
| 2026-05-05 20:24 | 12.47045 | 100.45787 | 27765 ft | 447 kts | 1° |
| 2026-05-05 20:24 | 12.50145 | 100.45865 | 27236 ft | 444 kts | 1° |
| 2026-05-05 20:24 | 12.53222 | 100.45943 | 26705 ft | 442 kts | 1° |
| 2026-05-05 20:25 | 12.56290 | 100.46020 | 26175 ft | 439 kts | 1° |
| 2026-05-05 20:25 | 12.58322 | 100.46072 | 25824 ft | 438 kts | 1° |
| 2026-05-05 20:25 | 12.62429 | 100.46175 | 25116 ft | 436 kts | 1° |
| 2026-05-05 20:25 | 12.64439 | 100.46226 | 24773 ft | 435 kts | 1° |
| 2026-05-05 20:26 | 12.67458 | 100.46302 | 24254 ft | 433 kts | 2° |
| 2026-05-05 20:26 | 12.70472 | 100.46379 | 23741 ft | 432 kts | 2° |
| 2026-05-05 20:26 | 12.73480 | 100.46455 | 23187 ft | 431 kts | 2° |
| 2026-05-05 20:26 | 12.76467 | 100.46530 | 22624 ft | 429 kts | 2° |
| 2026-05-05 20:27 | 12.79449 | 100.46606 | 22119 ft | 425 kts | 2° |
| 2026-05-05 20:27 | 12.82395 | 100.46680 | 21645 ft | 421 kts | 2° |
| 2026-05-05 20:27 | 12.85315 | 100.46754 | 21158 ft | 418 kts | 2° |
| 2026-05-05 20:27 | 12.88211 | 100.46827 | 20687 ft | 415 kts | 2° |
| 2026-05-05 20:28 | 12.91085 | 100.46900 | 20231 ft | 412 kts | 2° |
| 2026-05-05 20:28 | 12.93942 | 100.46972 | 19777 ft | 409 kts | 2° |
| 2026-05-05 20:28 | 12.96782 | 100.47044 | 19330 ft | 406 kts | 2° |
| 2026-05-05 20:28 | 12.99594 | 100.47115 | 18888 ft | 402 kts | 2° |
| 2026-05-05 20:29 | 13.02373 | 100.47186 | 18462 ft | 396 kts | 2° |
| 2026-05-05 20:29 | 13.05107 | 100.47255 | 18015 ft | 390 kts | 2° |
| 2026-05-05 20:29 | 13.07774 | 100.47549 | 17545 ft | 384 kts | 16° |
| 2026-05-05 20:29 | 13.10170 | 100.48681 | 17170 ft | 378 kts | 35° |
| 2026-05-05 20:30 | 13.12250 | 100.50310 | 16792 ft | 374 kts | 38° |
| 2026-05-05 20:30 | 13.14293 | 100.51951 | 16360 ft | 372 kts | 38° |
| 2026-05-05 20:30 | 13.16316 | 100.53594 | 15961 ft | 369 kts | 39° |
| 2026-05-05 20:30 | 13.18319 | 100.55234 | 15578 ft | 366 kts | 39° |
| 2026-05-05 20:31 | 13.20306 | 100.56867 | 15189 ft | 364 kts | 39° |
| 2026-05-05 20:31 | 13.22286 | 100.58496 | 14798 ft | 362 kts | 39° |
| 2026-05-05 20:31 | 13.24245 | 100.60110 | 14412 ft | 360 kts | 39° |
| 2026-05-05 20:31 | 13.26194 | 100.61715 | 14029 ft | 358 kts | 39° |
| 2026-05-05 20:32 | 13.27628 | 100.62898 | 13776 ft | 356 kts | 39° |
| 2026-05-05 20:32 | 13.29522 | 100.64459 | 13513 ft | 350 kts | 39° |
| 2026-05-05 20:32 | 13.31066 | 100.65733 | 13334 ft | 346 kts | 39° |
| 2026-05-05 20:32 | 13.32950 | 100.67286 | 13171 ft | 348 kts | 39° |
| 2026-05-05 20:33 | 13.34843 | 100.68848 | 12973 ft | 348 kts | 39° |
| 2026-05-05 20:33 | 13.36726 | 100.70402 | 12733 ft | 342 kts | 39° |
| 2026-05-05 20:33 | 13.38580 | 100.71933 | 12486 ft | 336 kts | 39° |
| 2026-05-05 20:33 | 13.40383 | 100.73421 | 12243 ft | 329 kts | 39° |
| 2026-05-05 20:34 | 13.42150 | 100.74880 | 12029 ft | 323 kts | 39° |
| 2026-05-05 20:34 | 13.43893 | 100.76319 | 11798 ft | 317 kts | 39° |
| 2026-05-05 20:34 | 13.45597 | 100.77726 | 11577 ft | 311 kts | 38° |
| 2026-05-05 20:34 | 13.47471 | 100.78780 | 11313 ft | 307 kts | 17° |
| 2026-05-05 20:35 | 13.49513 | 100.79343 | 11117 ft | 301 kts | 15° |
| 2026-05-05 20:35 | 13.51535 | 100.79910 | 10912 ft | 301 kts | 15° |
| 2026-05-05 20:35 | 13.53561 | 100.80471 | 10701 ft | 301 kts | 15° |
| 2026-05-05 20:35 | 13.55556 | 100.81020 | 10490 ft | 300 kts | 15° |
| 2026-05-05 20:36 | 13.57562 | 100.81571 | 10279 ft | 296 kts | 15° |
| 2026-05-05 20:36 | 13.59541 | 100.82113 | 10070 ft | 291 kts | 15° |
| 2026-05-05 20:36 | 13.61480 | 100.82644 | 9865 ft | 285 kts | 15° |
| 2026-05-05 20:36 | 13.63386 | 100.83166 | 9659 ft | 283 kts | 15° |
| 2026-05-05 20:37 | 13.65301 | 100.83690 | 9440 ft | 283 kts | 15° |
| 2026-05-05 20:37 | 13.67208 | 100.84213 | 9214 ft | 283 kts | 15° |
| 2026-05-05 20:37 | 13.69109 | 100.84734 | 9002 ft | 282 kts | 15° |
| 2026-05-05 20:37 | 13.71006 | 100.85254 | 8812 ft | 281 kts | 15° |
| 2026-05-05 20:38 | 13.72895 | 100.85772 | 8619 ft | 280 kts | 15° |
| 2026-05-05 20:38 | 13.74777 | 100.86288 | 8424 ft | 279 kts | 15° |
| 2026-05-05 20:38 | 13.76650 | 100.86801 | 8222 ft | 277 kts | 15° |
| 2026-05-05 20:38 | 13.78492 | 100.87307 | 8025 ft | 271 kts | 15° |
| 2026-05-05 20:39 | 13.80296 | 100.87801 | 7835 ft | 265 kts | 15° |
| 2026-05-05 20:39 | 13.82065 | 100.88287 | 7647 ft | 260 kts | 15° |
| 2026-05-05 20:39 | 13.83790 | 100.88760 | 7455 ft | 254 kts | 15° |
| 2026-05-05 20:39 | 13.85481 | 100.89223 | 7263 ft | 250 kts | 15° |
| 2026-05-05 20:40 | 13.87168 | 100.89685 | 7096 ft | 251 kts | 15° |
| 2026-05-05 20:40 | 13.88904 | 100.90161 | 6914 ft | 251 kts | 15° |
| 2026-05-05 20:40 | 13.90592 | 100.90623 | 6749 ft | 249 kts | 15° |
| 2026-05-05 20:40 | 13.92243 | 100.91076 | 6592 ft | 242 kts | 15° |
| 2026-05-05 20:41 | 13.93859 | 100.91520 | 6387 ft | 238 kts | 15° |
| 2026-05-05 20:41 | 13.95446 | 100.91956 | 6197 ft | 233 kts | 15° |
| 2026-05-05 20:41 | 13.96991 | 100.92380 | 6029 ft | 226 kts | 15° |
| 2026-05-05 20:41 | 13.98491 | 100.92792 | 5857 ft | 219 kts | 15° |
| 2026-05-05 20:42 | 13.99946 | 100.93187 | 5694 ft | 214 kts | 15° |
| 2026-05-05 20:42 | 14.01404 | 100.93539 | 5533 ft | 213 kts | 6° |
| 2026-05-05 20:42 | 14.02780 | 100.93206 | 5372 ft | 201 kts | 322° |
| 2026-05-05 20:42 | 14.03610 | 100.92127 | 5276 ft | 189 kts | 292° |
| 2026-05-05 20:43 | 14.03884 | 100.90792 | 5237 ft | 196 kts | 266° |
| 2026-05-05 20:43 | 14.03488 | 100.89473 | 5219 ft | 192 kts | 234° |
| 2026-05-05 20:43 | 14.02516 | 100.88559 | 5158 ft | 190 kts | 207° |
| 2026-05-05 20:43 | 14.01351 | 100.87899 | 5042 ft | 191 kts | 210° |
| 2026-05-05 20:44 | 14.00208 | 100.87202 | 4859 ft | 190 kts | 210° |
| 2026-05-05 20:44 | 13.99090 | 100.86510 | 4665 ft | 189 kts | 211° |
| 2026-05-05 20:44 | 13.97965 | 100.85808 | 4461 ft | 189 kts | 211° |
| 2026-05-05 20:44 | 13.96843 | 100.85102 | 4315 ft | 187 kts | 211° |
| 2026-05-05 20:45 | 13.94627 | 100.83702 | 4124 ft | 187 kts | 211° |
| 2026-05-05 20:45 | 13.93519 | 100.82998 | 4026 ft | 187 kts | 211° |
| 2026-05-05 20:45 | 13.92411 | 100.82294 | 3921 ft | 186 kts | 211° |
| 2026-05-05 20:46 | 13.91309 | 100.81593 | 3815 ft | 186 kts | 211° |
| 2026-05-05 20:46 | 13.90205 | 100.80891 | 3701 ft | 186 kts | 211° |
| 2026-05-05 20:46 | 13.89107 | 100.80192 | 3587 ft | 185 kts | 211° |
| 2026-05-05 20:46 | 13.88013 | 100.79496 | 3461 ft | 185 kts | 211° |
| 2026-05-05 20:47 | 13.86890 | 100.78860 | 3337 ft | 184 kts | 204° |
| 2026-05-05 20:47 | 13.85694 | 100.78402 | 3126 ft | 183 kts | 197° |
| 2026-05-05 20:47 | 13.84472 | 100.78043 | 2852 ft | 181 kts | 195° |
| 2026-05-05 20:47 | 13.83238 | 100.77717 | 2595 ft | 181 kts | 194° |
| 2026-05-05 20:48 | 13.82029 | 100.77398 | 2339 ft | 176 kts | 195° |
| 2026-05-05 20:48 | 13.80902 | 100.77101 | 2103 ft | 158 kts | 195° |
| 2026-05-05 20:48 | 13.79866 | 100.76826 | 1889 ft | 151 kts | 195° |
| 2026-05-05 20:48 | 13.78857 | 100.76560 | 1698 ft | 150 kts | 195° |
| 2026-05-05 20:49 | 13.77844 | 100.76292 | 1526 ft | 150 kts | 195° |
| 2026-05-05 20:49 | 13.76834 | 100.76025 | 1319 ft | 150 kts | 194° |
| 2026-05-05 20:49 | 13.76151 | 100.75844 | 1176 ft | 150 kts | 194° |
| 2026-05-05 20:49 | 13.74820 | 100.75479 | 938 ft | 147 kts | 197° |
| 2026-05-05 20:50 | 13.73830 | 100.75215 | 725 ft | 146 kts | 193° |
| 2026-05-05 20:50 | 13.73174 | 100.75052 | 581 ft | 146 kts | 194° |
| 2026-05-05 20:50 | 13.72177 | 100.74791 | 389 ft | 145 kts | 194° |
| 2026-05-05 20:50 | 13.71208 | 100.74538 | 198 ft | 142 kts | 194° |
| 2026-05-05 20:51 | 13.70266 | 100.74292 | 37 ft | 137 kts | 194° |
| 2026-05-05 20:51 | 13.69464 | 100.74079 | 13 ft | 94 kts | 194° |
| 2026-05-05 20:51 | 13.69039 | 100.73969 | 16 ft | 28 kts | 195° |
| 2026-05-05 20:51 | 13.68831 | 100.73982 | 17 ft | 23 kts | 166° |
| 2026-05-05 20:52 | 13.68756 | 100.74001 | 17 ft | 7 kts | 166° |
| 2026-05-05 20:52 | 13.68752 | 100.74002 | 17 ft | 1 kts | 166° |
| 2026-05-05 20:52 | 13.68738 | 100.74007 | 17 ft | 4 kts | 158° |
| 2026-05-05 20:52 | 13.68716 | 100.74034 | 17 ft | 7 kts | 96° |
| 2026-05-05 20:53 | 13.68715 | 100.74049 | 16 ft | 2 kts | 95° |
| 2026-05-05 20:53 | 13.68711 | 100.74073 | 16 ft | 5 kts | 101° |
| 2026-05-05 20:53 | 13.68700 | 100.74119 | 18 ft | 8 kts | 105° |
| 2026-05-05 20:53 | 13.68684 | 100.74183 | 16 ft | 10 kts | 104° |
| 2026-05-05 20:54 | 13.68664 | 100.74264 | 16 ft | 12 kts | 104° |
| 2026-05-05 20:54 | 13.68641 | 100.74356 | 17 ft | 14 kts | 105° |
| 2026-05-05 20:54 | 13.68614 | 100.74462 | 17 ft | 16 kts | 105° |
| 2026-05-05 20:54 | 13.68585 | 100.74581 | 16 ft | 18 kts | 104° |
| 2026-05-05 20:55 | 13.68553 | 100.74708 | 16 ft | 19 kts | 104° |
| 2026-05-05 20:55 | 13.68517 | 100.74846 | 16 ft | 21 kts | 105° |
| 2026-05-05 20:55 | 13.68486 | 100.74973 | 15 ft | 18 kts | 105° |
| 2026-05-05 20:55 | 13.68453 | 100.75102 | 15 ft | 19 kts | 105° |
| 2026-05-05 20:56 | 13.68418 | 100.75242 | 15 ft | 21 kts | 104° |
| 2026-05-05 20:56 | 13.68391 | 100.75350 | 15 ft | 9 kts | 104° |
| 2026-05-05 20:56 | 13.68406 | 100.75411 | 15 ft | 10 kts | 28° |
| 2026-05-05 20:56 | 13.68480 | 100.75431 | 15 ft | 12 kts | 13° |
| 2026-05-05 20:57 | 13.68567 | 100.75453 | 15 ft | 14 kts | 14° |
| 2026-05-05 20:57 | 13.68667 | 100.75480 | 15 ft | 16 kts | 14° |
| 2026-05-05 20:57 | 13.68754 | 100.75502 | 15 ft | 12 kts | 14° |
| 2026-05-05 20:57 | 13.68824 | 100.75521 | 15 ft | 8 kts | 16° |
| 2026-05-05 20:58 | 13.68858 | 100.75546 | 17 ft | 0 kts | 46° |
| 2026-05-05 20:58 | 13.68865 | 100.75554 | 15 ft | 3 kts | 38° |
| 2026-05-05 20:58 | 13.68887 | 100.75562 | 15 ft | 4 kts | 14° |
| 2026-05-05 20:58 | 13.68916 | 100.75569 | 17 ft | 3 kts | 14° |
| 2026-05-05 20:59 | 13.68934 | 100.75574 | 15 ft | 1 kts | 14° |
| 2026-05-05 20:59 | 13.68939 | 100.75575 | 15 ft | 0 kts | 14° |
| 2026-05-05 20:59 | 13.68941 | 100.75575 | 15 ft | 0 kts | 14° |